Time;durP1;ratioP1;P1;durP2;ratioP2;P2;SDS_P1;SDS_P2;PMS_P1;PMS_P2;Temp;Humidity;BMP_temperature;BMP_pressure;BME280_temperature;BME280_humidity;BME280_pressure;Samples;Min_cycle;Max_cycle;Signal;HPM_P1;HPM_P2
2024/04/03 00:00:54;;;;;;;4.93;2.72;;;;;;;8.18;64.17;99807.72;2525717;28;20114;-82
2024/04/03 00:02:07;;;;;;;4.45;2.08;;;;;;;8.13;64.42;99809.50;2537061;28;20041;-79
2024/04/03 00:03:20;;;;;;;7.40;2.08;;;;;;;8.07;64.60;99805.25;2546079;28;20104;-80
2024/04/03 00:04:35;;;;;;;7.57;2.22;;;;;;;8.02;64.74;99802.72;2542634;28;20225;-82
2024/04/03 00:05:49;;;;;;;6.35;2.40;;;;;;;7.96;64.80;99810.59;2548738;28;20016;-82
2024/04/03 00:07:02;;;;;;;6.07;2.08;;;;;;;7.90;64.69;99812.38;2544166;28;20434;-79
2024/04/03 00:08:15;;;;;;;5.15;1.95;;;;;;;7.83;65.24;99804.66;2540267;28;20108;-82
2024/04/03 00:09:29;;;;;;;3.70;1.95;;;;;;;7.79;65.51;99807.31;2546268;28;20025;-80
2024/04/03 00:10:42;;;;;;;6.22;2.22;;;;;;;7.73;65.89;99800.44;2542051;28;20051;-80
2024/04/03 00:11:55;;;;;;;6.47;1.80;;;;;;;7.67;66.19;99800.53;2545053;28;20020;-82
2024/04/03 00:13:08;;;;;;;6.90;1.67;;;;;;;7.63;66.50;99796.22;2547569;28;20036;-80
2024/04/03 00:14:22;;;;;;;4.38;2.30;;;;;;;7.58;66.79;99798.00;2542736;28;20108;-82
2024/04/03 00:15:37;;;;;;;7.63;1.60;;;;;;;7.54;66.97;99797.19;2546167;28;20036;-83
2024/04/03 00:16:50;;;;;;;7.00;2.50;;;;;;;7.50;67.66;99803.28;2547546;28;20027;-82
2024/04/03 00:18:04;;;;;;;8.98;2.33;;;;;;;7.46;67.88;99805.91;2537749;28;20517;-79
2024/04/03 00:19:17;;;;;;;5.03;2.15;;;;;;;7.40;68.05;99794.69;2541986;28;20025;-83
2024/04/03 00:20:30;;;;;;;5.45;2.10;;;;;;;7.35;68.35;99793.03;2529770;28;20063;-82
2024/04/03 00:21:46;;;;;;;4.72;2.90;;;;;;;7.30;68.42;99798.25;2538301;28;20035;-82
2024/04/03 00:22:59;;;;;;;4.43;1.70;;;;;;;7.25;68.60;99792.25;2552920;28;20025;-81
2024/04/03 00:24:12;;;;;;;7.30;2.03;;;;;;;7.21;68.86;99787.97;2547760;28;20036;-82
2024/04/03 00:25:26;;;;;;;7.25;2.72;;;;;;;7.16;69.07;99793.19;2535474;28;20501;-82
2024/04/03 00:26:39;;;;;;;19.27;2.05;;;;;;;7.12;69.35;99793.22;2542752;28;20489;-80
2024/04/03 00:27:52;;;;;;;17.75;3.08;;;;;;;7.09;69.59;99791.53;2541961;28;20700;-83
2024/04/03 00:29:06;;;;;;;7.35;2.30;;;;;;;7.06;69.71;99785.50;2542674;28;20025;-81
2024/04/03 00:30:19;;;;;;;6.72;1.95;;;;;;;7.03;69.64;99793.31;2539902;28;20029;-81
2024/04/03 00:31:32;;;;;;;5.57;2.85;;;;;;;6.99;69.84;99784.69;2538510;28;20041;-82
2024/04/03 00:32:46;;;;;;;4.90;2.00;;;;;;;6.95;70.08;99790.78;2539176;28;20017;-80
2024/04/03 00:33:59;;;;;;;4.30;2.13;;;;;;;6.94;70.48;99794.25;2552737;28;20043;-82
2024/04/03 00:35:12;;;;;;;5.65;2.58;;;;;;;6.91;70.77;99787.34;2537526;28;20029;-82
2024/04/03 00:36:25;;;;;;;3.63;2.03;;;;;;;6.88;70.86;99786.50;2539089;28;20056;-81
2024/04/03 00:37:40;;;;;;;3.80;2.85;;;;;;;6.86;71.00;99781.31;2545357;28;20447;-80
2024/04/03 00:38:54;;;;;;;8.57;2.90;;;;;;;6.82;70.85;99782.25;2544619;28;20092;-80
2024/04/03 00:40:07;;;;;;;4.85;2.15;;;;;;;6.79;70.95;99779.69;2534999;28;20530;-83
2024/04/03 00:41:23;;;;;;;4.15;1.73;;;;;;;6.76;70.74;99780.56;2541122;28;20128;-82
2024/04/03 00:42:37;;;;;;;5.72;1.45;;;;;;;6.74;71.08;99784.88;2544636;28;20059;-81
2024/04/03 00:43:50;;;;;;;6.55;2.88;;;;;;;6.71;71.27;99776.25;2539085;28;20024;-82
2024/04/03 00:45:04;;;;;;;6.40;2.17;;;;;;;6.68;71.21;99784.91;2537129;28;20017;-83
2024/04/03 00:46:19;;;;;;;4.43;1.95;;;;;;;6.64;71.19;99778.03;2539061;28;20048;-80
2024/04/03 00:47:32;;;;;;;6.45;3.05;;;;;;;6.60;71.26;99770.28;2544875;28;20048;-83
2024/04/03 00:48:46;;;;;;;7.00;2.53;;;;;;;6.58;71.29;99774.59;2544467;28;20037;-81
2024/04/03 00:49:59;;;;;;;6.13;3.17;;;;;;;6.54;71.36;99768.59;2538286;28;20037;-83
2024/04/03 00:51:13;;;;;;;8.65;2.33;;;;;;;6.47;71.35;99770.34;2535206;28;20140;-81
2024/04/03 00:52:26;;;;;;;8.63;2.67;;;;;;;6.44;71.46;99770.38;2541544;28;20020;-81
2024/04/03 00:53:39;;;;;;;4.13;2.58;;;;;;;6.40;71.25;99768.69;2550153;28;20754;-82
2024/04/03 00:54:52;;;;;;;4.32;2.38;;;;;;;6.38;71.73;99766.97;2533980;28;20543;-80
2024/04/03 00:56:07;;;;;;;5.53;2.53;;;;;;;6.34;71.89;99772.16;2538026;28;20555;-80
2024/04/03 00:57:20;;;;;;;3.85;1.40;;;;;;;6.31;71.80;99764.41;2540202;28;20031;-80
2024/04/03 00:58:34;;;;;;;7.20;2.20;;;;;;;6.28;71.90;99760.97;2544079;28;20048;-81
2024/04/03 00:59:47;;;;;;;5.88;2.40;;;;;;;6.24;71.76;99761.84;2544950;28;20029;-81
2024/04/03 01:01:01;;;;;;;7.40;2.13;;;;;;;6.21;72.18;99756.69;2554044;28;20075;-81
2024/04/03 01:02:14;;;;;;;8.27;2.22;;;;;;;6.16;72.24;99755.84;2539171;28;20425;-81
2024/04/03 01:03:27;;;;;;;12.48;2.42;;;;;;;6.14;72.30;99757.59;2535066;28;20465;-82
2024/04/03 01:04:41;;;;;;;6.53;3.55;;;;;;;6.09;72.69;99752.41;2532629;28;20056;-81
2024/04/03 01:06:01;;;;;;;4.18;2.28;;;;;;;6.08;72.78;99761.94;2527326;28;20055;-78
2024/04/03 01:07:14;;;;;;;7.95;2.35;;;;;;;6.04;72.89;99759.34;2543840;28;20461;-78
2024/04/03 01:08:28;;;;;;;5.60;2.00;;;;;;;6.02;72.89;99756.78;2535141;28;20028;-80
2024/04/03 01:09:42;;;;;;;4.78;2.28;;;;;;;6.02;73.14;99756.78;2537512;28;20049;-79
2024/04/03 01:11:00;;;;;;;2.90;1.60;;;;;;;6.01;73.40;99754.19;2541485;28;20052;-80
2024/04/03 01:12:13;;;;;;;13.13;4.40;;;;;;;5.99;73.53;99754.22;2541958;28;20082;-79
2024/04/03 01:13:27;;;;;;;10.98;2.78;;;;;;;5.99;73.65;99749.03;2541374;28;20096;-78
2024/04/03 01:14:40;;;;;;;16.35;3.88;;;;;;;5.99;73.82;99749.03;2543522;28;20036;-78
2024/04/03 01:16:01;;;;;;;6.70;2.30;;;;;;;5.99;73.83;99741.25;2527922;28;20036;-79
2024/04/03 01:17:14;;;;;;;5.05;1.98;;;;;;;5.99;73.88;99743.84;2533569;28;20531;-80
2024/04/03 01:18:27;;;;;;;4.43;2.20;;;;;;;6.00;74.01;99742.97;2537187;28;20056;-80
2024/04/03 01:19:41;;;;;;;6.40;2.05;;;;;;;6.01;74.51;99742.09;2533927;28;20068;-78
2024/04/03 01:20:54;;;;;;;3.05;2.25;;;;;;;6.04;74.45;99743.81;2537638;28;20519;-78
2024/04/03 01:22:07;;;;;;;11.15;2.60;;;;;;;6.04;74.57;99729.16;2537719;28;20075;-79
2024/04/03 01:23:22;;;;;;;3.67;2.10;;;;;;;6.05;74.70;99736.03;2537820;28;20115;-79
2024/04/03 01:24:35;;;;;;;6.35;2.70;;;;;;;6.07;74.64;99731.72;2538742;28;20028;-78
2024/04/03 01:25:49;;;;;;;9.40;2.28;;;;;;;6.08;74.64;99730.84;2537275;28;20033;-81
2024/04/03 01:27:02;;;;;;;12.35;2.95;;;;;;;6.09;75.02;99726.50;2540432;28;20117;-80
2024/04/03 01:28:16;;;;;;;7.13;2.13;;;;;;;6.09;75.04;99732.59;2538276;28;20017;-80
2024/04/03 01:29:30;;;;;;;9.38;3.20;;;;;;;6.11;75.15;99729.97;2537931;28;20501;-79
2024/04/03 01:30:43;;;;;;;7.45;2.75;;;;;;;6.14;75.17;99726.50;2527404;28;20113;-81
2024/04/03 01:31:56;;;;;;;6.90;3.90;;;;;;;6.13;75.29;99717.00;2538687;28;20024;-80
2024/04/03 01:33:09;;;;;;;6.13;2.35;;;;;;;6.12;75.26;99716.16;2538955;28;20071;-79
2024/04/03 01:34:23;;;;;;;4.28;2.17;;;;;;;6.10;75.15;99723.94;2527327;28;20052;-78
2024/04/03 01:35:36;;;;;;;7.18;2.17;;;;;;;6.09;75.02;99727.41;2531272;28;20445;-79
2024/04/03 01:36:49;;;;;;;3.35;2.05;;;;;;;6.08;75.08;99720.47;2527464;28;20484;-76
2024/04/03 01:38:03;;;;;;;7.63;2.40;;;;;;;6.07;74.90;99712.72;2530956;28;20533;-79
2024/04/03 01:39:17;;;;;;;10.63;2.58;;;;;;;6.06;75.26;99719.63;2543717;28;20021;-80
2024/04/03 01:40:30;;;;;;;5.43;1.73;;;;;;;6.06;75.09;99722.22;2544320;28;20050;-79
2024/04/03 01:41:43;;;;;;;4.55;1.98;;;;;;;6.08;75.07;99715.31;2537345;28;20025;-78
2024/04/03 01:42:57;;;;;;;9.00;2.70;;;;;;;6.10;75.12;99713.56;2537872;28;20416;-79
2024/04/03 01:44:10;;;;;;;6.72;1.90;;;;;;;6.13;75.15;99720.47;2532628;28;20470;-80
2024/04/03 01:45:23;;;;;;;8.45;1.95;;;;;;;6.16;75.21;99719.59;2538581;28;20498;-77
2024/04/03 01:46:36;;;;;;;11.10;2.63;;;;;;;6.19;75.42;99709.19;2544109;28;20036;-79
2024/04/03 01:47:50;;;;;;;5.53;1.95;;;;;;;6.22;75.67;99709.19;2545471;28;20148;-80
2024/04/03 01:49:03;;;;;;;3.60;1.70;;;;;;;6.25;75.40;99706.59;2551936;28;20024;-78
2024/04/03 01:50:19;;;;;;;7.20;2.30;;;;;;;6.27;75.60;99703.13;2538669;28;20056;-79
2024/04/03 01:51:32;;;;;;;4.97;2.00;;;;;;;6.30;75.38;99702.25;2538303;28;20095;-79
2024/04/03 01:52:46;;;;;;;5.80;2.00;;;;;;;6.31;75.48;99709.13;2528240;28;20029;-79
2024/04/03 01:53:59;;;;;;;5.18;2.95;;;;;;;6.33;75.76;99710.00;2541321;28;20095;-80
2024/04/03 01:55:13;;;;;;;6.03;2.00;;;;;;;6.34;75.57;99711.69;2549378;28;20038;-80
2024/04/03 01:56:26;;;;;;;3.33;1.75;;;;;;;6.36;75.47;99704.78;2544685;28;20154;-79
2024/04/03 01:57:39;;;;;;;4.60;2.00;;;;;;;6.36;75.31;99704.78;2544669;28;20025;-76
2024/04/03 01:58:53;;;;;;;6.78;2.72;;;;;;;6.37;75.16;99700.44;2545316;28;20025;-78
2024/04/03 02:00:07;;;;;;;5.25;1.95;;;;;;;6.40;75.27;99690.94;2552709;28;20134;-78
2024/04/03 02:01:20;;;;;;;10.18;3.45;;;;;;;6.41;74.93;99692.66;2544705;28;20504;-80
2024/04/03 02:02:33;;;;;;;10.38;2.03;;;;;;;6.44;75.23;99699.53;2540890;28;20032;-77
2024/04/03 02:03:46;;;;;;;7.25;1.88;;;;;;;6.44;75.18;99692.63;2548085;28;20140;-78
2024/04/03 02:05:00;;;;;;;9.40;2.40;;;;;;;6.46;75.30;99703.84;2544988;28;20032;-78
2024/04/03 02:06:13;;;;;;;4.38;1.77;;;;;;;6.49;75.24;99688.25;2544827;28;20033;-78
2024/04/03 02:07:27;;;;;;;4.50;2.90;;;;;;;6.52;75.10;99685.66;2541432;28;20041;-78
2024/04/03 02:08:40;;;;;;;8.25;2.45;;;;;;;6.53;75.08;99677.00;2554794;28;20063;-76
2024/04/03 02:09:53;;;;;;;1.95;1.40;;;;;;;6.55;74.80;99685.63;2547159;28;20063;-78
2024/04/03 02:11:06;;;;;;;5.95;1.67;;;;;;;6.57;75.19;99675.25;2548020;28;20539;-79
2024/04/03 02:12:21;;;;;;;3.22;1.80;;;;;;;6.60;75.22;99683.00;2554892;28;20491;-77
2024/04/03 02:13:34;;;;;;;10.07;3.67;;;;;;;6.62;75.45;99680.41;2555568;28;20031;-78
2024/04/03 02:14:48;;;;;;;4.82;2.10;;;;;;;6.64;75.26;99689.88;2548486;28;20063;-77
2024/04/03 02:16:01;;;;;;;6.97;2.40;;;;;;;6.67;75.46;99681.22;2544976;28;20029;-80
2024/04/03 02:17:14;;;;;;;6.57;3.58;;;;;;;6.70;75.09;99678.59;2536091;28;20032;-78
2024/04/03 02:18:27;;;;;;;12.20;3.65;;;;;;;6.70;75.23;99676.84;2541237;28;20110;-77
2024/04/03 02:19:41;;;;;;;5.78;1.58;;;;;;;6.73;75.11;99678.56;2544338;28;20016;-79
2024/04/03 02:20:54;;;;;;;5.53;2.33;;;;;;;6.73;75.31;99678.56;2545177;28;20021;-79
2024/04/03 02:22:07;;;;;;;8.52;2.08;;;;;;;6.72;75.18;99680.31;2534362;28;20552;-78
2024/04/03 02:23:20;;;;;;;7.07;3.80;;;;;;;6.72;75.15;99676.88;2547855;28;20505;-79
2024/04/03 02:24:33;;;;;;;4.85;1.77;;;;;;;6.72;74.99;99669.94;2551699;28;20056;-79
2024/04/03 02:25:47;;;;;;;3.92;1.90;;;;;;;6.72;75.02;99671.66;2544566;28;20031;-79
2024/04/03 02:27:00;;;;;;;3.97;2.05;;;;;;;6.74;74.97;99673.38;2546079;28;20025;-78
2024/04/03 02:28:13;;;;;;;11.55;2.50;;;;;;;6.76;75.02;99669.06;2544097;28;20029;-80
2024/04/03 02:29:26;;;;;;;4.07;2.05;;;;;;;6.79;74.75;99668.16;2545299;28;20029;-79
2024/04/03 02:30:39;;;;;;;4.78;2.28;;;;;;;6.81;75.22;99668.97;2540939;28;20052;-79
2024/04/03 02:31:53;;;;;;;7.30;1.48;;;;;;;6.83;75.09;99674.16;2533823;28;20044;-80
2024/04/03 02:33:06;;;;;;;6.00;1.90;;;;;;;6.83;74.84;99664.66;2533138;28;20048;-81
2024/04/03 02:34:20;;;;;;;9.50;2.10;;;;;;;6.84;75.29;99662.91;2537170;28;20041;-81
2024/04/03 02:35:33;;;;;;;8.95;2.78;;;;;;;6.83;75.46;99663.78;2540385;28;20021;-79
2024/04/03 02:36:46;;;;;;;4.15;2.15;;;;;;;6.84;75.38;99668.09;2528913;28;20026;-79
2024/04/03 02:37:59;;;;;;;4.45;2.33;;;;;;;6.84;75.46;99670.69;2533557;28;20540;-79
2024/04/03 02:39:13;;;;;;;5.70;2.40;;;;;;;6.85;75.35;99667.25;2543010;28;20037;-78
2024/04/03 02:40:26;;;;;;;13.00;2.50;;;;;;;6.84;75.52;99675.88;2534097;28;20102;-80
2024/04/03 02:41:39;;;;;;;7.22;3.13;;;;;;;6.83;75.63;99675.03;2536577;28;20025;-80
2024/04/03 02:42:52;;;;;;;6.30;1.63;;;;;;;6.83;75.67;99677.63;2544195;28;20051;-77
2024/04/03 02:44:06;;;;;;;1.92;1.50;;;;;;;6.82;75.67;99677.66;2543793;28;20079;-78
2024/04/03 02:45:19;;;;;;;6.03;2.13;;;;;;;6.81;76.04;99678.50;2544728;28;20037;-80
2024/04/03 02:46:32;;;;;;;8.95;2.35;;;;;;;6.78;75.82;99671.59;2536055;28;20041;-80
2024/04/03 02:47:45;;;;;;;4.38;1.80;;;;;;;6.77;75.97;99672.50;2546365;28;20462;-79
2024/04/03 02:48:59;;;;;;;6.53;2.30;;;;;;;6.74;75.82;99660.41;2540019;28;20034;-79
2024/04/03 02:50:12;;;;;;;5.57;2.08;;;;;;;6.75;75.84;99671.63;2541673;28;20041;-79
2024/04/03 02:51:25;;;;;;;4.45;2.30;;;;;;;6.74;75.90;99665.59;2544322;28;20584;-78
2024/04/03 02:52:38;;;;;;;5.00;3.33;;;;;;;6.76;75.88;99665.56;2537643;28;20021;-80
2024/04/03 02:53:52;;;;;;;7.13;2.90;;;;;;;6.75;76.13;99667.31;2549446;28;20035;-79
2024/04/03 02:55:05;;;;;;;3.15;2.40;;;;;;;6.75;75.75;99662.13;2554969;28;20032;-80
2024/04/03 02:56:18;;;;;;;4.35;2.00;;;;;;;6.75;75.62;99661.28;2544425;28;20036;-80
2024/04/03 02:57:31;;;;;;;5.18;2.22;;;;;;;6.74;75.62;99649.19;2533159;28;20088;-79
2024/04/03 02:58:45;;;;;;;5.85;1.73;;;;;;;6.74;75.77;99654.38;2533952;28;20112;-78
2024/04/03 02:59:58;;;;;;;6.90;2.92;;;;;;;6.75;75.60;99651.75;2530282;28;20029;-79
2024/04/03 03:01:11;;;;;;;3.75;1.33;;;;;;;6.75;75.54;99648.31;2544543;28;20104;-79
2024/04/03 03:02:24;;;;;;;4.20;1.92;;;;;;;6.76;75.72;99647.41;2532916;28;20033;-80
2024/04/03 03:03:38;;;;;;;5.38;2.00;;;;;;;6.77;75.68;99641.38;2537751;28;20074;-79
2024/04/03 03:04:51;;;;;;;5.07;2.10;;;;;;;6.79;75.96;99642.22;2543477;28;20021;-78
2024/04/03 03:06:06;;;;;;;3.67;2.17;;;;;;;6.80;76.01;99637.91;2543246;28;20118;-78
2024/04/03 03:07:19;;;;;;;5.50;2.92;;;;;;;6.81;76.06;99637.00;2533679;28;20033;-79
2024/04/03 03:08:33;;;;;;;3.45;2.25;;;;;;;6.82;76.17;99637.00;2537501;28;20029;-81
2024/04/03 03:09:46;;;;;;;9.40;2.47;;;;;;;6.84;76.16;99639.56;2522940;28;20084;-79
2024/04/03 03:11:01;;;;;;;12.07;2.92;;;;;;;6.84;76.24;99637.84;2537217;28;20029;-78
2024/04/03 03:12:15;;;;;;;8.18;2.20;;;;;;;6.85;76.39;99626.59;2543710;28;20068;-79
2024/04/03 03:13:28;;;;;;;4.43;2.10;;;;;;;6.87;76.20;99636.97;2544784;28;20033;-79
2024/04/03 03:14:41;;;;;;;4.43;2.40;;;;;;;6.88;76.53;99636.09;2544301;28;20025;-77
2024/04/03 03:15:56;;;;;;;5.97;2.10;;;;;;;6.88;76.62;99630.91;2544324;28;20017;-79
2024/04/03 03:17:10;;;;;;;8.60;2.25;;;;;;;6.88;76.48;99631.75;2527758;28;20029;-78
2024/04/03 03:18:25;;;;;;;3.35;1.77;;;;;;;6.90;76.54;99635.19;2535896;28;20072;-79
2024/04/03 03:19:38;;;;;;;10.10;2.50;;;;;;;6.90;76.36;99626.56;2551233;28;20011;-79
2024/04/03 03:20:52;;;;;;;4.95;1.83;;;;;;;6.89;76.38;99617.94;2538127;28;20018;-77
2024/04/03 03:22:05;;;;;;;3.72;1.73;;;;;;;6.87;75.96;99624.84;2527156;28;20038;-80
2024/04/03 03:23:19;;;;;;;3.90;2.20;;;;;;;6.87;76.26;99617.06;2537754;28;20069;-79
2024/04/03 03:24:32;;;;;;;5.78;3.15;;;;;;;6.86;76.33;99612.75;2537194;28;20035;-80
2024/04/03 03:25:47;;;;;;;3.97;2.72;;;;;;;6.86;76.46;99615.34;2536020;28;20481;-81
2024/04/03 03:27:00;;;;;;;6.28;1.85;;;;;;;6.85;76.31;99612.78;2537546;28;20510;-81
2024/04/03 03:28:16;;;;;;;6.15;2.65;;;;;;;6.85;76.65;99621.41;2539955;28;20028;-77
2024/04/03 03:29:29;;;;;;;5.28;1.67;;;;;;;6.85;76.56;99621.41;2546220;28;20025;-77
2024/04/03 03:30:50;;;;;;;4.22;2.25;;;;;;;6.87;76.49;99621.41;2549950;28;20638;-79
2024/04/03 03:32:04;;;;;;;2.83;1.88;;;;;;;6.86;76.63;99604.97;2550930;28;20020;-77
2024/04/03 03:33:17;;;;;;;7.13;1.65;;;;;;;6.87;76.60;99606.69;2538538;28;20021;-79
2024/04/03 03:34:31;;;;;;;6.07;2.50;;;;;;;6.86;76.73;99612.75;2544622;28;20029;-78
2024/04/03 03:35:57;;;;;;;5.82;1.83;;;;;;;6.86;76.80;99612.75;2537395;28;20390;-77
2024/04/03 03:37:10;;;;;;;5.90;1.95;;;;;;;6.84;76.55;99611.94;2541467;28;20044;-80
2024/04/03 03:38:23;;;;;;;3.65;1.85;;;;;;;6.83;76.88;99605.00;2536223;28;20037;-79
2024/04/03 03:39:37;;;;;;;6.07;2.30;;;;;;;6.81;76.64;99604.16;2543856;28;20016;-79
2024/04/03 03:40:51;;;;;;;3.88;2.47;;;;;;;6.80;76.58;99609.38;2543834;28;20044;-77
2024/04/03 03:42:05;;;;;;;3.20;2.13;;;;;;;6.79;76.56;99600.75;2543192;28;20063;-80
2024/04/03 03:43:18;;;;;;;4.03;1.70;;;;;;;6.79;76.37;99611.09;2553053;28;20035;-78
2024/04/03 03:44:31;;;;;;;3.95;3.13;;;;;;;6.77;76.46;99605.06;2541858;28;20071;-80
2024/04/03 03:45:48;;;;;;;9.27;2.28;;;;;;;6.76;76.76;99599.03;2526740;28;20041;-78
2024/04/03 03:47:02;;;;;;;3.42;1.60;;;;;;;6.75;76.57;99602.47;2537491;28;20028;-79
2024/04/03 03:48:16;;;;;;;7.75;2.22;;;;;;;6.75;76.85;99601.63;2548508;28;20028;-79
2024/04/03 03:52:42;;;;;;;7.10;2.67;;;;;;;6.73;76.74;99591.25;2539266;28;20059;-80
2024/04/03 03:53:56;;;;;;;4.40;1.70;;;;;;;6.73;76.88;99590.41;2535608;28;20021;-80
2024/04/03 03:55:09;;;;;;;2.72;1.80;;;;;;;6.73;76.76;99595.59;2550415;28;20048;-80
2024/04/03 03:56:23;;;;;;;9.77;2.50;;;;;;;6.71;77.24;99589.56;2536929;28;20060;-79
2024/04/03 03:57:36;;;;;;;5.03;3.17;;;;;;;6.67;77.16;99601.69;2529097;28;20049;-81
2024/04/03 03:58:50;;;;;;;9.40;2.40;;;;;;;6.63;76.79;99594.81;2534694;28;20116;-81
2024/04/03 04:00:04;;;;;;;4.57;2.22;;;;;;;6.62;76.87;99594.84;2531833;28;20064;-81
2024/04/03 04:01:17;;;;;;;7.78;2.47;;;;;;;6.60;76.90;99591.41;2545300;28;20155;-81
2024/04/03 04:02:31;;;;;;;8.18;2.25;;;;;;;6.58;76.93;99596.59;2545329;28;20470;-81
2024/04/03 04:03:44;;;;;;;5.03;2.33;;;;;;;6.58;76.79;99595.75;2556695;28;20048;-81
2024/04/03 04:04:57;;;;;;;3.45;2.80;;;;;;;6.58;76.86;99603.50;2543094;28;20060;-81
2024/04/03 04:06:10;;;;;;;10.90;2.97;;;;;;;6.57;76.96;99597.47;2543889;28;20033;-80
2024/04/03 04:07:24;;;;;;;5.47;2.03;;;;;;;6.58;77.20;99595.75;2546123;28;20047;-81
2024/04/03 04:08:38;;;;;;;8.00;3.08;;;;;;;6.58;77.01;99593.16;2536041;28;20021;-81
2024/04/03 04:09:52;;;;;;;4.45;2.50;;;;;;;6.59;77.23;99597.47;2522495;28;20018;-80
2024/04/03 04:11:05;;;;;;;8.75;4.10;;;;;;;6.57;77.37;99600.06;2538387;28;20052;-81
2024/04/03 04:12:19;;;;;;;6.75;2.05;;;;;;;6.58;77.31;99598.31;2545287;28;20039;-80
2024/04/03 04:13:32;;;;;;;3.85;1.85;;;;;;;6.55;77.29;99597.47;2539845;28;20021;-81
2024/04/03 04:14:50;;;;;;;4.07;3.17;;;;;;;6.52;77.34;99592.31;2529370;28;20128;-79
2024/04/03 04:16:03;;;;;;;4.22;1.90;;;;;;;6.49;77.43;99594.94;2534405;28;20571;-80
2024/04/03 04:17:17;;;;;;;10.35;2.40;;;;;;;6.45;76.99;99606.22;2546171;28;20089;-79
2024/04/03 04:18:31;;;;;;;8.77;2.08;;;;;;;6.43;77.18;99597.59;2555734;28;20029;-80
2024/04/03 04:19:45;;;;;;;6.13;2.28;;;;;;;6.42;77.14;99603.66;2551694;28;20017;-80
2024/04/03 04:20:58;;;;;;;4.38;2.08;;;;;;;6.43;77.12;99607.97;2541682;28;20021;-80
2024/04/03 04:22:11;;;;;;;11.63;3.17;;;;;;;6.41;77.19;99607.13;2528758;28;20072;-80
2024/04/03 04:23:25;;;;;;;6.07;2.90;;;;;;;6.41;77.20;99603.69;2522640;28;20449;-80
2024/04/03 04:24:39;;;;;;;4.50;2.20;;;;;;;6.42;77.09;99620.94;2533237;28;20024;-80
2024/04/03 04:26:03;;;;;;;3.40;1.73;;;;;;;6.44;77.10;99608.84;2545277;28;20016;-81
2024/04/03 04:27:17;;;;;;;5.50;2.50;;;;;;;6.46;77.16;99607.94;2553190;28;20084;-78
2024/04/03 04:28:31;;;;;;;7.40;2.72;;;;;;;6.49;76.94;99618.28;2534110;28;20361;-83
2024/04/03 04:29:45;;;;;;;3.30;2.10;;;;;;;6.49;76.90;99620.88;2538832;28;20067;-81
2024/04/03 04:31:03;;;;;;;8.25;2.72;;;;;;;6.52;76.88;99620.84;2532364;28;20413;-81
2024/04/03 04:32:16;;;;;;;3.90;2.42;;;;;;;6.52;76.50;99623.44;2533583;28;20036;-81
2024/04/03 04:33:31;;;;;;;3.70;1.63;;;;;;;6.55;76.60;99625.13;2534441;28;20021;-81
2024/04/03 04:34:45;;;;;;;8.98;2.08;;;;;;;6.55;76.89;99625.13;2530516;28;20063;-80
2024/04/03 04:35:58;;;;;;;5.50;2.08;;;;;;;6.57;76.77;99630.31;2548262;28;20031;-80
2024/04/03 04:37:12;;;;;;;6.30;2.60;;;;;;;6.57;76.54;99631.19;2547531;28;20052;-81
2024/04/03 04:38:26;;;;;;;9.23;2.42;;;;;;;6.58;76.65;99627.69;2542690;28;20037;-81
2024/04/03 04:39:39;;;;;;;3.25;1.85;;;;;;;6.60;76.61;99635.47;2529945;28;20025;-79
2024/04/03 04:40:53;;;;;;;4.07;2.17;;;;;;;6.61;76.82;99632.00;2536231;28;20029;-80
2024/04/03 04:42:08;;;;;;;8.57;2.75;;;;;;;6.60;76.46;99631.16;2536764;28;20105;-79
2024/04/03 04:43:22;;;;;;;7.65;2.17;;;;;;;6.61;76.22;99634.59;2542666;28;20017;-78
2024/04/03 04:44:35;;;;;;;5.00;2.00;;;;;;;6.60;76.44;99636.31;2536794;28;20542;-79
2024/04/03 04:46:02;;;;;;;7.45;1.75;;;;;;;6.61;76.44;99627.69;2535967;28;20539;-80
2024/04/03 04:47:15;;;;;;;6.28;1.90;;;;;;;6.62;76.25;99634.59;2533459;28;20449;-78
2024/04/03 04:48:30;;;;;;;7.22;2.30;;;;;;;6.61;76.37;99637.19;2529762;28;20060;-79
2024/04/03 04:49:44;;;;;;;9.80;3.22;;;;;;;6.61;76.27;99640.66;2532930;28;20053;-78
2024/04/03 04:50:59;;;;;;;4.22;2.63;;;;;;;6.60;76.54;99635.47;2530426;28;20552;-80
2024/04/03 04:52:12;;;;;;;4.88;1.90;;;;;;;6.60;76.76;99635.47;2540117;28;20560;-79
2024/04/03 04:53:26;;;;;;;6.47;2.38;;;;;;;6.62;76.32;99636.31;2544299;28;20039;-79
2024/04/03 04:54:39;;;;;;;4.53;2.55;;;;;;;6.61;77.02;99630.28;2542825;28;20037;-80
2024/04/03 04:55:55;;;;;;;6.53;2.67;;;;;;;6.61;76.60;99640.66;2564835;22;20044;-80
2024/04/03 04:57:09;;;;;;;5.68;1.55;;;;;;;6.61;76.63;99639.78;2543527;28;20028;-81
2024/04/03 04:58:23;;;;;;;3.75;2.08;;;;;;;6.63;77.11;99640.63;2536774;28;20613;-81
2024/04/03 04:59:36;;;;;;;4.18;1.77;;;;;;;6.64;77.21;99640.63;2533076;28;20025;-80
2024/04/03 05:01:00;;;;;;;15.45;3.03;;;;;;;6.66;76.72;99640.59;2534132;28;20596;-80
2024/04/03 05:02:13;;;;;;;3.22;2.25;;;;;;;6.65;76.73;99642.34;2534542;28;20066;-80
2024/04/03 05:03:26;;;;;;;6.75;3.25;;;;;;;6.67;76.91;99644.94;2535306;28;20438;-80
2024/04/03 05:04:39;;;;;;;3.85;2.00;;;;;;;6.68;76.95;99647.47;2539025;28;20477;-81
2024/04/03 05:05:52;;;;;;;4.10;2.33;;;;;;;6.70;76.69;99648.34;2534609;28;20029;-80
2024/04/03 05:07:06;;;;;;;9.57;3.08;;;;;;;6.73;76.81;99652.63;2535590;28;20037;-80
2024/04/03 05:08:19;;;;;;;9.98;2.30;;;;;;;6.75;76.52;99651.75;2535084;28;20033;-80
2024/04/03 05:09:32;;;;;;;10.60;5.78;;;;;;;6.79;76.67;99657.78;2535590;28;20048;-80
2024/04/03 05:10:56;;;;;;;4.22;1.75;;;;;;;6.80;76.46;99653.44;2533645;28;20036;-80
2024/04/03 05:12:10;;;;;;;4.32;2.50;;;;;;;6.80;76.45;99663.81;2532727;28;20017;-80
2024/04/03 05:13:27;;;;;;;7.75;2.33;;;;;;;6.83;76.53;99659.47;2535158;28;20056;-80
2024/04/03 05:14:41;;;;;;;4.55;2.35;;;;;;;6.88;76.29;99665.47;2529678;28;20036;-80
2024/04/03 05:15:54;;;;;;;3.38;2.67;;;;;;;6.92;76.21;99664.56;2534689;28;20017;-80
2024/04/03 05:17:07;;;;;;;5.60;2.50;;;;;;;6.94;76.12;99664.53;2534329;28;20511;-80
2024/04/03 05:18:20;;;;;;;9.07;2.13;;;;;;;7.01;75.87;99667.94;2534897;28;20042;-80
2024/04/03 05:19:34;;;;;;;6.90;2.10;;;;;;;7.04;75.74;99662.72;2534439;28;20029;-80
2024/04/03 05:20:47;;;;;;;9.65;2.60;;;;;;;7.09;75.74;99661.78;2535315;28;20044;-81
2024/04/03 05:22:02;;;;;;;2.55;1.85;;;;;;;7.14;75.01;99662.59;2534211;28;20033;-80
2024/04/03 05:23:15;;;;;;;2.08;1.77;;;;;;;7.21;74.72;99661.69;2518353;28;20069;-80
2024/04/03 05:24:28;;;;;;;6.55;2.00;;;;;;;7.28;74.52;99666.78;2531963;28;20039;-81
2024/04/03 05:25:41;;;;;;;2.83;1.95;;;;;;;7.33;74.26;99660.69;2541180;28;20027;-81
2024/04/03 05:26:54;;;;;;;2.38;1.58;;;;;;;7.39;73.71;99663.22;2535622;28;20017;-80
2024/04/03 05:28:08;;;;;;;2.95;1.65;;;;;;;7.47;73.64;99662.25;2535490;28;20034;-80
2024/04/03 05:29:21;;;;;;;11.43;2.60;;;;;;;7.54;73.06;99656.13;2534409;28;20371;-81
2024/04/03 05:30:35;;;;;;;6.72;2.05;;;;;;;7.61;72.65;99657.75;2535800;28;20571;-81
2024/04/03 05:31:48;;;;;;;5.22;2.28;;;;;;;7.68;72.44;99655.94;2538640;28;20053;-80
2024/04/03 05:33:02;;;;;;;3.97;1.60;;;;;;;7.71;71.91;99651.56;2545107;28;20040;-81
2024/04/03 05:34:15;;;;;;;3.08;1.60;;;;;;;7.76;71.77;99667.09;2539543;28;20037;-80
2024/04/03 05:35:28;;;;;;;9.70;1.88;;;;;;;7.81;71.47;99658.34;2527774;28;20046;-80
2024/04/03 05:36:42;;;;;;;5.95;1.60;;;;;;;7.84;71.18;99663.50;2535066;28;20021;-80
2024/04/03 05:37:55;;;;;;;3.85;2.17;;;;;;;7.89;71.41;99660.84;2526990;28;20051;-80
2024/04/03 05:39:08;;;;;;;5.20;2.22;;;;;;;7.92;71.16;99647.81;2534906;28;20056;-80
2024/04/03 05:40:22;;;;;;;4.82;2.38;;;;;;;7.97;71.39;99659.00;2538937;28;20020;-80
2024/04/03 05:41:35;;;;;;;2.00;1.70;;;;;;;8.01;70.71;99649.44;2538480;28;20017;-81
2024/04/03 05:42:49;;;;;;;2.20;1.92;;;;;;;8.05;70.40;99646.78;2545425;28;20033;-80
2024/04/03 05:44:02;;;;;;;7.07;2.58;;;;;;;8.09;70.57;99656.22;2544087;28;20176;-80
2024/04/03 05:45:15;;;;;;;4.32;2.13;;;;;;;8.13;70.53;99650.97;2545236;28;20028;-80
2024/04/03 05:46:28;;;;;;;2.72;1.67;;;;;;;8.17;69.70;99652.66;2545057;28;20507;-80
2024/04/03 05:47:42;;;;;;;5.70;1.98;;;;;;;8.20;69.75;99650.88;2544381;28;20055;-80
2024/04/03 05:48:55;;;;;;;2.85;1.55;;;;;;;8.25;69.72;99654.25;2544616;28;20074;-79
2024/04/03 05:50:09;;;;;;;6.07;2.30;;;;;;;8.28;69.42;99659.41;2544653;28;20036;-80
2024/04/03 05:51:22;;;;;;;4.90;1.48;;;;;;;8.33;69.31;99658.50;2545258;28;20401;-80
2024/04/03 05:52:36;;;;;;;3.53;1.67;;;;;;;8.38;69.47;99659.28;2545240;28;20028;-80
2024/04/03 05:53:49;;;;;;;3.53;1.63;;;;;;;8.40;69.04;99658.41;2538264;28;20052;-80
2024/04/03 05:55:02;;;;;;;4.07;1.95;;;;;;;8.42;69.10;99654.03;2543476;28;20028;-80